Time;durP1;ratioP1;P1;durP2;ratioP2;P2;SDS_P1;SDS_P2;PMS_P1;PMS_P2;Temp;Humidity;BMP_temperature;BMP_pressure;BME280_temperature;BME280_humidity;BME280_pressure;Samples;Min_cycle;Max_cycle;Signal;HPM_P1;HPM_P2
2022/12/10 00:01:44;;;;;;;98.65;46.73;;;;;;;-0.14;92.45;99356.08;1658697;86;27346;-68
2022/12/10 00:04:13;;;;;;;111.32;47.00;;;;;;;-0.15;92.51;99350.52;1658637;86;25523;-70
2022/12/10 00:06:43;;;;;;;102.55;44.88;;;;;;;-0.15;92.57;99350.52;1658595;86;25600;-68
2022/12/10 00:09:15;;;;;;;103.92;45.67;;;;;;;-0.13;92.59;99344.41;1658564;86;26496;-68
2022/12/10 00:11:42;;;;;;;96.50;44.67;;;;;;;-0.13;92.63;99347.06;1658659;86;25597;-68
2022/12/10 00:14:13;;;;;;;98.52;44.45;;;;;;;-0.10;92.65;99356.36;1658662;86;27397;-68
2022/12/10 00:16:41;;;;;;;98.42;43.78;;;;;;;-0.10;92.63;99351.04;1658674;86;25646;-68
2022/12/10 00:19:07;;;;;;;109.97;45.03;;;;;;;-0.10;92.61;99347.88;1661822;86;25480;-69
2022/12/10 00:21:36;;;;;;;106.03;44.40;;;;;;;-0.12;92.65;99343.36;1662529;86;25659;-69
2022/12/10 00:24:06;;;;;;;93.65;41.42;;;;;;;-0.12;92.73;99344.68;1662590;86;25466;-68
2022/12/10 00:26:37;;;;;;;98.07;44.10;;;;;;;-0.10;92.72;99349.20;1662666;86;27510;-68
2022/12/10 00:29:08;;;;;;;102.20;43.63;;;;;;;-0.10;92.68;99345.72;1662511;86;25524;-68
2022/12/10 00:31:38;;;;;;;100.90;41.70;;;;;;;-0.09;92.71;99344.67;1639851;86;25516;-67
2022/12/10 00:34:09;;;;;;;91.75;42.53;;;;;;;-0.09;92.75;99340.15;1662530;86;25595;-67
2022/12/10 00:36:45;;;;;;;99.52;43.28;;;;;;;-0.11;92.76;99342.27;1676607;84;25628;-68
2022/12/10 00:39:18;;;;;;;99.65;43.60;;;;;;;-0.10;92.79;99345.21;1690909;84;27502;-68
2022/12/10 00:41:45;;;;;;;98.37;42.48;;;;;;;-0.09;92.75;99338.82;1690796;84;25799;-68
2022/12/10 00:44:14;;;;;;;104.55;45.92;;;;;;;-0.10;92.69;99343.89;1690881;84;25639;-70
2022/12/10 00:46:40;;;;;;;97.37;44.33;;;;;;;-0.12;92.67;99342.02;1691071;84;25618;-69
2022/12/10 00:49:09;;;;;;;93.20;42.75;;;;;;;-0.10;92.69;99348.38;1690867;84;25638;-69
2022/12/10 00:51:38;;;;;;;100.02;43.20;;;;;;;-0.11;92.72;99346.27;1690970;84;28107;-69
2022/12/10 00:54:07;;;;;;;99.65;43.95;;;;;;;-0.10;92.76;99349.71;1690949;84;25483;-69
2022/12/10 00:56:35;;;;;;;101.60;45.53;;;;;;;-0.11;92.81;99347.59;1691112;84;25609;-69
2022/12/10 00:59:03;;;;;;;101.92;42.33;;;;;;;-0.12;92.82;99356.64;1690835;84;25691;-69
2022/12/10 01:01:35;;;;;;;90.35;42.98;;;;;;;-0.13;92.87;99352.38;1695325;84;25601;-69
2022/12/10 01:04:11;;;;;;;88.60;40.55;;;;;;;-0.14;92.82;99357.41;1690887;84;26970;-68
2022/12/10 01:06:49;;;;;;;94.32;41.10;;;;;;;-0.12;92.80;99359.30;1690908;84;25649;-69
2022/12/10 01:09:27;;;;;;;91.90;41.15;;;;;;;-0.14;92.94;99353.42;1690869;84;25535;-69
2022/12/10 01:12:01;;;;;;;90.90;40.92;;;;;;;-0.14;93.00;99342.79;1690835;84;25651;-68
2022/12/10 01:14:31;;;;;;;103.15;42.00;;;;;;;-0.13;92.92;99344.94;1691010;84;25480;-68
2022/12/10 01:17:02;;;;;;;86.32;39.80;;;;;;;-0.13;92.86;99340.95;1690898;84;27335;-68
2022/12/10 01:19:32;;;;;;;89.83;39.67;;;;;;;-0.13;92.95;99339.09;1691356;84;25499;-68
2022/12/10 01:21:59;;;;;;;86.75;38.30;;;;;;;-0.13;92.87;99344.94;1691678;84;25652;-68
2022/12/10 01:24:28;;;;;;;89.55;40.23;;;;;;;-0.13;92.89;99343.61;1691612;84;25709;-70
2022/12/10 01:26:56;;;;;;;66.43;28.80;;;;;;;-0.14;92.95;99343.33;1691965;84;25622;-68
2022/12/10 01:29:24;;;;;;;77.90;36.15;;;;;;;-0.14;93.00;99336.14;1691703;84;27933;-69
2022/12/10 01:31:55;;;;;;;85.00;36.58;;;;;;;-0.14;92.97;99333.48;1694827;84;25800;-70
2022/12/10 01:34:24;;;;;;;92.45;38.42;;;;;;;-0.16;93.02;99325.52;1694134;84;25574;-68
2022/12/10 01:36:54;;;;;;;84.30;37.20;;;;;;;-0.15;93.07;99323.11;1694177;84;26219;-67
2022/12/10 01:39:23;;;;;;;;;;;;;;;-0.17;93.10;99319.92;1696658;84;25656;-69
2022/12/10 01:41:55;;;;;;;78.07;33.48;;;;;;;-0.15;93.09;99319.95;1694219;84;27468;-67
2022/12/10 01:44:28;;;;;;;85.03;33.40;;;;;;;-0.17;93.10;99316.76;1693040;84;25780;-68
2022/12/10 01:47:05;;;;;;;85.70;36.28;;;;;;;-0.18;93.11;99306.38;1694216;84;25491;-68
2022/12/10 01:49:39;;;;;;;81.82;35.20;;;;;;;-0.19;93.16;99308.22;1691757;84;26373;-67
2022/12/10 01:52:12;;;;;;;74.53;33.85;;;;;;;-0.21;93.18;99305.82;1666354;84;25528;-67
2022/12/10 01:54:44;;;;;;;85.85;34.67;;;;;;;-0.22;93.10;99307.44;1691694;84;27318;-68
2022/12/10 01:57:20;;;;;;;83.00;35.52;;;;;;;-0.22;93.12;99310.09;1691539;84;25632;-68
2022/12/10 01:59:54;;;;;;;71.95;34.00;;;;;;;-0.24;93.11;99311.69;1690474;84;25648;-68
2022/12/10 02:02:45;;;;;;;69.82;32.73;;;;;;;-0.24;93.12;99314.34;1690707;84;25685;-69
2022/12/10 02:05:21;;;;;;;75.97;31.42;;;;;;;-0.24;93.14;99314.34;1691632;84;25460;-69
2022/12/10 02:08:12;;;;;;;77.78;31.97;;;;;;;-0.23;93.15;99320.45;1691547;84;27417;-68
2022/12/10 02:11:02;;;;;;;69.32;31.25;;;;;;;-0.23;93.12;99321.78;1626265;88;25640;-69
2022/12/10 02:14:06;;;;;;;67.60;29.80;;;;;;;-0.25;93.09;99318.05;1626603;88;25657;-69
2022/12/10 02:16:54;;;;;;;70.03;29.35;;;;;;;-0.25;93.12;99320.70;1625933;88;27849;-69
2022/12/10 02:20:00;;;;;;;69.32;31.33;;;;;;;-0.25;93.21;99322.03;1625874;88;25720;-68
2022/12/10 02:22:33;;;;;;;66.75;29.82;;;;;;;-0.25;93.15;99323.91;1622415;87;27386;-68
2022/12/10 02:25:04;;;;;;;67.72;29.02;;;;;;;-0.25;93.29;99326.56;1626452;88;25690;-69
2022/12/10 02:27:38;;;;;;;74.75;30.55;;;;;;;-0.26;93.32;99325.73;1577854;88;25571;-68
2022/12/10 02:30:07;;;;;;;62.03;26.62;;;;;;;-0.27;93.36;99328.15;1618404;87;25638;-69
2022/12/10 02:32:42;;;;;;;63.60;27.15;;;;;;;-0.27;93.36;99325.48;1598315;88;25555;-69
2022/12/10 02:35:23;;;;;;;62.15;27.77;;;;;;;-0.26;93.34;99319.09;1626431;88;27365;-69
2022/12/10 02:37:56;;;;;;;62.25;27.73;;;;;;;-0.25;93.37;99323.91;1626366;88;25951;-68
2022/12/10 02:40:31;;;;;;;62.40;27.30;;;;;;;-0.26;93.48;99311.66;1626508;88;25640;-67
2022/12/10 02:42:59;;;;;;;62.93;27.30;;;;;;;-0.26;93.48;99316.44;1688206;84;25642;-67
2022/12/10 02:45:30;;;;;;;59.08;25.17;;;;;;;-0.27;93.55;99317.52;1691533;84;25467;-67
2022/12/10 02:48:00;;;;;;;68.35;29.50;;;;;;;-0.24;93.58;99318.33;1691639;84;29575;-67
2022/12/10 02:50:28;;;;;;;64.00;27.00;;;;;;;-0.25;93.54;99315.92;1691527;84;27225;-67
2022/12/10 02:52:55;;;;;;;57.10;26.57;;;;;;;-0.24;93.56;99322.83;1668608;84;25455;-68
2022/12/10 02:55:23;;;;;;;59.10;26.62;;;;;;;-0.25;93.61;99317.26;1664474;84;26307;-70
2022/12/10 02:58:15;;;;;;;58.15;25.75;;;;;;;-0.25;93.65;99315.92;1694046;84;25492;-70
2022/12/10 03:01:07;;;;;;;56.40;24.45;;;;;;;-0.25;93.65;99317.26;1694041;84;29490;-68
2022/12/10 03:03:44;;;;;;;57.83;24.67;;;;;;;-0.26;93.66;99318.30;1684501;84;25466;-68
2022/12/10 03:06:21;;;;;;;57.38;25.55;;;;;;;-0.25;93.66;99313.27;1661783;84;25571;-68
2022/12/10 03:09:06;;;;;;;55.05;25.30;;;;;;;-0.26;93.65;99309.80;1691861;84;25639;-68
2022/12/10 03:11:35;;;;;;;54.23;24.65;;;;;;;-0.27;93.59;99312.73;1691552;84;25477;-69
2022/12/10 03:14:20;;;;;;;63.20;26.52;;;;;;;-0.27;93.72;99313.53;1691575;84;27343;-69
2022/12/10 03:17:00;;;;;;;61.13;26.05;;;;;;;-0.27;93.69;99312.20;1690748;84;25598;-70
2022/12/10 03:19:41;;;;;;;54.95;25.80;;;;;;;-0.27;93.76;99314.07;1692012;84;25467;-70
2022/12/10 03:22:12;;;;;;;61.28;24.65;;;;;;;-0.27;93.75;99314.07;1690120;84;26283;-69
2022/12/10 03:24:42;;;;;;;57.85;25.72;;;;;;;-0.27;93.81;99320.71;1691762;84;25577;-69
2022/12/10 03:27:14;;;;;;;61.00;25.37;;;;;;;-0.28;93.85;99317.77;1691649;84;27340;-66
2022/12/10 03:29:48;;;;;;;58.23;26.42;;;;;;;-0.27;93.85;99319.38;1691508;84;25772;-67
2022/12/10 03:32:20;;;;;;;61.95;25.85;;;;;;;-0.29;93.80;99315.66;1695408;84;25490;-68
2022/12/10 03:34:52;;;;;;;55.30;25.68;;;;;;;-0.29;93.88;99316.16;1691491;84;27827;-68
2022/12/10 03:37:22;;;;;;;52.67;24.15;;;;;;;-0.28;93.93;99317.77;1689209;84;25590;-68
2022/12/10 03:39:51;;;;;;;53.73;22.15;;;;;;;-0.28;93.94;99330.52;1687200;85;27336;-67
2022/12/10 03:42:18;;;;;;;53.50;22.67;;;;;;;-0.28;93.94;99327.08;1687898;84;25693;-68
2022/12/10 03:44:50;;;;;;;56.90;23.38;;;;;;;-0.29;93.88;99328.13;1691524;83;25611;-67
2022/12/10 03:47:18;;;;;;;53.63;22.55;;;;;;;-0.28;93.89;99320.43;1691659;84;26254;-66
2022/12/10 03:49:45;;;;;;;52.53;22.20;;;;;;;-0.28;93.85;99317.77;1691701;83;25421;-67
2022/12/10 03:52:13;;;;;;;51.05;21.77;;;;;;;-0.29;93.91;99319.64;1691631;84;27397;-67
2022/12/10 03:54:43;;;;;;;52.13;22.07;;;;;;;-0.28;93.91;99312.45;1691732;84;25629;-67
2022/12/10 03:57:09;;;;;;;51.77;22.42;;;;;;;-0.28;93.77;99319.10;1691719;84;25633;-67
2022/12/10 03:59:36;;;;;;;51.50;24.75;;;;;;;-0.29;93.81;99327.61;1691603;84;25615;-67
2022/12/10 04:02:04;;;;;;;52.35;23.73;;;;;;;-0.29;93.77;99317.49;1691681;83;25439;-66
2022/12/10 04:04:32;;;;;;;52.75;23.55;;;;;;;-0.30;93.78;99316.70;1691528;83;27404;-66
2022/12/10 04:06:59;;;;;;;52.35;23.20;;;;;;;-0.30;93.81;99317.24;1691585;84;25578;-66
2022/12/10 04:09:27;;;;;;;53.80;24.47;;;;;;;-0.30;93.85;99318.03;1691621;84;25491;-66
2022/12/10 04:11:59;;;;;;;55.83;23.65;;;;;;;-0.30;93.85;99319.90;1691574;84;25632;-66
2022/12/10 04:17:13;;;;;;;57.33;25.88;;;;;;;-0.32;93.90;99318.01;1691773;84;27351;-68
2022/12/10 04:19:40;;;;;;;54.15;25.92;;;;;;;-0.32;93.94;99317.50;1691139;84;25571;-67
2022/12/10 04:27:40;;;;;;;65.67;27.60;;;;;;;-0.33;93.97;99315.89;1687582;84;25480;-67
2022/12/10 04:30:11;;;;;;;54.13;25.48;;;;;;;-0.32;94.02;99328.64;1669350;84;28045;-67
2022/12/10 04:32:39;;;;;;;55.88;25.30;;;;;;;-0.31;94.07;99328.92;1690822;84;25387;-67
2022/12/10 04:35:08;;;;;;;60.95;24.05;;;;;;;-0.30;94.14;99331.86;1690912;84;25452;-70
2022/12/10 04:37:35;;;;;;;55.75;24.18;;;;;;;-0.30;94.07;99321.23;1690974;84;25719;-69
2022/12/10 04:40:04;;;;;;;53.55;24.70;;;;;;;-0.30;93.98;99318.57;1690885;84;25482;-69
2022/12/10 04:42:30;;;;;;;37.75;16.85;;;;;;;-0.31;93.91;99315.63;1669800;84;27472;-68
2022/12/10 04:44:58;;;;;;;51.80;21.60;;;;;;;-0.31;93.90;99319.08;1690811;84;25477;-68
2022/12/10 04:47:25;;;;;;;51.50;21.95;;;;;;;-0.31;93.95;99319.08;1690893;84;25618;-68
2022/12/10 04:49:52;;;;;;;47.85;21.55;;;;;;;-0.31;93.99;99324.94;1690981;84;26488;-68
2022/12/10 04:52:20;;;;;;;55.35;22.80;;;;;;;-0.30;94.05;99326.00;1669282;84;25506;-68
2022/12/10 04:54:46;;;;;;;50.80;20.95;;;;;;;-0.30;94.06;99323.89;1690815;84;27409;-67
2022/12/10 04:57:14;;;;;;;48.17;19.98;;;;;;;-0.31;94.04;99307.12;1690770;84;27284;-67
2022/12/10 04:59:42;;;;;;;46.68;19.98;;;;;;;-0.31;94.07;99315.09;1690908;84;25592;-68
2022/12/10 05:02:08;;;;;;;51.18;21.48;;;;;;;-0.30;94.04;99329.98;1690839;84;25617;-69
2022/12/10 05:04:35;;;;;;;46.42;18.70;;;;;;;-0.30;94.03;99332.64;1690881;84;25580;-69
2022/12/10 05:07:01;;;;;;;44.80;18.67;;;;;;;-0.31;93.96;99331.58;1690876;84;27351;-68
2022/12/10 05:09:28;;;;;;;49.23;18.85;;;;;;;-0.32;93.94;99332.11;1690777;84;25657;-69
2022/12/10 05:11:56;;;;;;;45.25;18.25;;;;;;;-0.31;93.95;99330.25;1690846;84;25584;-69
2022/12/10 05:14:23;;;;;;;43.90;19.30;;;;;;;-0.32;93.98;99336.61;1665565;84;25551;-69
2022/12/10 05:16:52;;;;;;;42.27;16.87;;;;;;;-0.32;94.02;99338.76;1690827;84;25439;-69
2022/12/10 05:19:21;;;;;;;46.92;18.73;;;;;;;-0.32;93.99;99337.43;1690884;84;27398;-68
2022/12/10 05:24:37;;;;;;;42.83;16.27;;;;;;;-0.36;93.92;99338.99;1691654;84;25635;-68
2022/12/10 05:27:05;;;;;;;40.85;16.77;;;;;;;-0.35;93.92;99339.81;1691553;84;26195;-68
2022/12/10 05:29:34;;;;;;;41.25;17.00;;;;;;;-0.37;93.98;99340.07;1695535;84;25481;-68
2022/12/10 05:32:03;;;;;;;38.28;16.12;;;;;;;-0.36;94.03;99342.98;1668109;84;27360;-69
2022/12/10 05:34:29;;;;;;;38.65;16.20;;;;;;;-0.36;94.02;99343.52;1693192;84;25575;-69
2022/12/10 05:36:55;;;;;;;42.47;15.93;;;;;;;-0.38;94.02;99347.22;1691577;84;26318;-69
2022/12/10 05:39:21;;;;;;;48.78;18.07;;;;;;;-0.36;94.06;99346.17;1691487;84;25659;-69
2022/12/10 05:41:49;;;;;;;42.73;17.95;;;;;;;-0.38;94.06;99349.88;1691565;84;25637;-69
2022/12/10 05:44:15;;;;;;;42.83;16.05;;;;;;;-0.37;94.07;99350.70;1691558;84;27336;-69
2022/12/10 05:46:41;;;;;;;40.85;16.87;;;;;;;-0.38;94.15;99353.86;1691513;84;25439;-69
2022/12/10 05:49:09;;;;;;;42.30;16.15;;;;;;;-0.38;94.19;99354.41;1695030;84;25669;-69
2022/12/10 05:51:38;;;;;;;37.55;16.25;;;;;;;-0.41;94.26;99353.08;1693979;84;25586;-69
2022/12/10 05:54:08;;;;;;;40.08;16.67;;;;;;;-0.35;94.27;99361.07;1693691;84;25599;-68
2022/12/10 05:56:37;;;;;;;44.73;18.45;;;;;;;-0.34;94.30;99372.77;1691646;84;27334;-68
2022/12/10 05:59:06;;;;;;;38.42;15.72;;;;;;;-0.33;94.33;99370.37;1691472;83;25487;-69
2022/12/10 06:01:36;;;;;;;41.45;17.80;;;;;;;-0.32;94.31;99367.99;1691527;84;25410;-67
2022/12/10 06:04:05;;;;;;;50.08;20.02;;;;;;;-0.32;94.24;99367.99;1691504;84;25628;-70
2022/12/10 06:06:36;;;;;;;43.85;18.37;;;;;;;-0.30;94.26;99365.08;1691602;84;25661;-70
2022/12/10 06:09:09;;;;;;;44.10;19.00;;;;;;;-0.30;94.20;99357.89;1691609;84;27396;-71
2022/12/10 06:11:37;;;;;;;43.20;17.27;;;;;;;-0.30;94.18;99362.42;1691457;84;25385;-70
2022/12/10 06:14:04;;;;;;;45.80;17.90;;;;;;;-0.32;94.13;99358.69;1691548;84;25597;-70
2022/12/10 06:16:32;;;;;;;45.78;18.67;;;;;;;-0.33;94.15;99367.70;1691446;84;25677;-70
2022/12/10 06:18:58;;;;;;;47.13;18.77;;;;;;;-0.32;94.23;99364.52;1688841;84;25648;-69
2022/12/10 06:21:27;;;;;;;45.00;18.40;;;;;;;-0.32;94.29;99363.19;1686562;84;28058;-69
2022/12/10 06:23:55;;;;;;;44.63;17.92;;;;;;;-0.33;94.31;99362.93;1686588;85;25427;-69
2022/12/10 06:26:26;;;;;;;49.05;19.73;;;;;;;-0.31;94.27;99362.14;1687818;85;25634;-69
2022/12/10 06:28:54;;;;;;;55.35;20.35;;;;;;;-0.31;94.33;99364.80;1688585;85;26213;-69
2022/12/10 06:31:23;;;;;;;47.55;18.82;;;;;;;-0.34;94.37;99355.50;1688564;85;25480;-69
2022/12/10 06:33:52;;;;;;;47.17;20.12;;;;;;;-0.32;94.43;99362.67;1688717;85;27957;-68
2022/12/10 06:36:21;;;;;;;31.40;13.03;;;;;;;-0.31;94.45;99366.13;1688642;85;25646;-70
2022/12/10 06:38:50;;;;;;;31.13;12.83;;;;;;;-0.29;94.43;99373.30;1688815;85;25654;-69
2022/12/10 06:41:20;;;;;;;45.23;19.50;;;;;;;-0.29;94.43;99373.30;1688768;85;25684;-68
2022/12/10 06:43:48;;;;;;;52.08;20.02;;;;;;;-0.29;94.47;99374.63;1688648;85;25612;-68
2022/12/10 06:46:21;;;;;;;49.60;18.90;;;;;;;-0.27;94.52;99377.85;1688549;85;27409;-68
2022/12/10 06:48:47;;;;;;;53.85;20.77;;;;;;;-0.27;94.59;99376.52;1688487;85;25550;-69
2022/12/10 06:51:17;;;;;;;52.13;21.00;;;;;;;-0.28;94.66;99380.23;1688535;85;25473;-69
2022/12/10 06:53:45;;;;;;;53.50;19.82;;;;;;;-0.28;94.74;99380.23;1688693;85;25739;-69
2022/12/10 06:56:17;;;;;;;54.05;22.35;;;;;;;-0.24;94.79;99391.92;1688575;85;25593;-69
2022/12/10 06:58:47;;;;;;;49.05;19.48;;;;;;;-0.24;94.79;99390.09;1688278;84;27548;-68
2022/12/10 07:01:27;;;;;;;52.75;20.62;;;;;;;-0.24;94.77;99387.43;1688462;85;25434;-69
2022/12/10 07:03:57;;;;;;;51.95;18.25;;;;;;;-0.23;94.77;99390.34;1688595;85;25406;-70
2022/12/10 07:06:28;;;;;;;48.35;19.75;;;;;;;-0.23;94.84;99381.04;1688571;85;26211;-69
2022/12/10 07:08:55;;;;;;;50.38;19.80;;;;;;;-0.21;94.87;99388.76;1688643;85;25640;-69
2022/12/10 07:11:25;;;;;;;52.90;19.90;;;;;;;-0.19;94.97;99386.63;1688525;85;27337;-69
2022/12/10 07:13:53;;;;;;;50.48;20.57;;;;;;;-0.20;95.00;99389.83;1688625;85;25464;-70
2022/12/10 07:16:28;;;;;;;50.92;21.07;;;;;;;-0.16;95.07;99393.30;1688548;85;25536;-70
2022/12/10 07:18:59;;;;;;;52.75;19.67;;;;;;;-0.16;95.11;99390.64;1688518;85;25734;-68
2022/12/10 07:21:34;;;;;;;49.05;18.15;;;;;;;-0.15;95.14;99391.72;1691050;84;25404;-68
2022/12/10 07:24:12;;;;;;;57.38;20.40;;;;;;;-0.14;95.17;99393.30;1691559;84;27911;-69
2022/12/10 07:26:43;;;;;;;62.40;21.73;;;;;;;-0.10;95.19;99394.91;1691467;84;25434;-67
2022/12/10 07:29:16;;;;;;;67.32;23.95;;;;;;;-0.11;95.21;99392.78;1691551;84;25556;-68
2022/12/10 07:31:44;;;;;;;59.18;23.47;;;;;;;-0.09;95.23;99391.20;1666567;84;25651;-69
2022/12/10 07:34:12;;;;;;;63.75;23.25;;;;;;;-0.10;95.24;99397.05;1691986;84;25588;-69
2022/12/10 07:36:40;;;;;;;60.17;21.60;;;;;;;-0.06;95.36;99402.65;1689204;84;27357;-68
2022/12/10 07:39:16;;;;;;;63.08;21.12;;;;;;;-0.07;95.43;99394.39;1690437;84;25562;-67
2022/12/10 07:41:38;;;;;;;60.90;21.25;;;;;;;-0.03;95.39;99402.92;1691498;84;25572;-68
2022/12/10 07:44:11;;;;;;;54.45;18.55;;;;;;;-0.04;95.39;99396.53;1691509;84;26305;-68
2022/12/10 07:46:39;;;;;;;52.25;18.70;;;;;;;-0.02;95.44;99404.53;1691786;84;25603;-68
2022/12/10 07:49:05;;;;;;;54.00;19.60;;;;;;;0.01;95.47;99405.06;1691839;83;27342;-67
2022/12/10 07:51:33;;;;;;;54.60;19.23;;;;;;;0.03;95.44;99408.26;1691692;84;25751;-67
2022/12/10 07:53:59;;;;;;;59.15;21.73;;;;;;;0.02;95.43;99406.14;1689093;84;25215;-68
2022/12/10 07:56:27;;;;;;;52.17;18.98;;;;;;;0.05;95.44;99407.46;1690269;84;25619;-68
2022/12/10 07:58:55;;;;;;;54.10;19.30;;;;;;;0.06;95.46;99402.42;1691513;83;25467;-68
2022/12/10 08:01:26;;;;;;;55.88;18.80;;;;;;;0.06;95.52;99409.08;1691460;84;27335;-68
2022/12/10 08:03:56;;;;;;;63.13;20.60;;;;;;;0.07;95.48;99406.16;1691492;84;25476;-69
2022/12/10 08:06:25;;;;;;;54.27;20.15;;;;;;;0.07;95.48;99402.67;1695497;84;25578;-69
2022/12/10 08:08:54;;;;;;;59.15;21.68;;;;;;;0.08;95.58;99395.77;1689222;84;25631;-69
2022/12/10 08:11:23;;;;;;;47.67;18.35;;;;;;;0.10;95.54;99389.69;1687037;83;25567;-69
2022/12/10 08:13:51;;;;;;;38.67;13.83;;;;;;;0.10;95.46;99389.69;1687194;85;27357;-69
2022/12/10 08:16:26;;;;;;;56.80;20.62;;;;;;;0.12;95.55;99388.89;1686927;85;25479;-69
2022/12/10 08:18:58;;;;;;;55.15;21.07;;;;;;;0.14;95.60;99390.75;1687801;84;25464;-68
2022/12/10 08:21:29;;;;;;;58.78;21.77;;;;;;;0.15;95.58;99393.69;1690857;84;26142;-69
2022/12/10 08:24:00;;;;;;;56.13;20.23;;;;;;;0.16;95.62;99401.13;1695901;84;25636;-68
2022/12/10 08:26:30;;;;;;;55.63;21.07;;;;;;;0.16;95.60;99399.26;1694182;84;27342;-66
2022/12/10 08:28:59;;;;;;;55.58;20.23;;;;;;;0.20;95.68;99407.51;1689850;84;25645;-68
2022/12/10 08:31:27;;;;;;;62.17;20.90;;;;;;;0.22;95.69;99396.61;1690990;84;25541;-68
2022/12/10 08:33:54;;;;;;;56.02;21.00;;;;;;;0.23;95.69;99392.91;1690749;84;25632;-67
2022/12/10 08:36:21;;;;;;;63.73;23.00;;;;;;;0.26;95.74;99394.50;1690931;84;25654;-68
2022/12/10 08:38:48;;;;;;;53.95;19.85;;;;;;;0.26;95.62;99389.73;1690872;84;28000;-68
2022/12/10 08:41:21;;;;;;;52.62;21.07;;;;;;;0.26;95.60;99389.73;1690828;84;25457;-70
2022/12/10 08:43:48;;;;;;;60.48;21.07;;;;;;;0.26;95.52;99395.05;1690936;84;25593;-70
2022/12/10 08:46:16;;;;;;;58.28;20.90;;;;;;;0.26;95.52;99401.70;1690870;84;25637;-68
2022/12/10 08:48:43;;;;;;;57.43;21.07;;;;;;;0.26;95.53;99402.48;1690913;84;25645;-69
2022/12/10 08:51:14;;;;;;;62.43;20.35;;;;;;;0.27;95.55;99401.41;1690917;84;28076;-70
2022/12/10 08:53:41;;;;;;;55.55;20.40;;;;;;;0.27;95.61;99401.41;1690882;84;25621;-69
2022/12/10 08:56:07;;;;;;;53.15;20.20;;;;;;;0.28;95.52;99396.91;1691005;84;25470;-71
2022/12/10 08:58:34;;;;;;;55.88;19.60;;;;;;;0.27;95.45;99397.41;1690968;84;25674;-68
2022/12/10 09:01:08;;;;;;;48.05;18.10;;;;;;;0.27;95.49;99405.39;1669235;84;25441;-69
2022/12/10 09:03:35;;;;;;;51.42;18.50;;;;;;;0.29;95.58;99400.64;1690664;84;27453;-67
2022/12/10 09:06:09;;;;;;;47.05;18.52;;;;;;;0.31;95.60;99397.72;1690805;84;25569;-67
2022/12/10 09:08:36;;;;;;;59.85;20.20;;;;;;;0.32;95.61;99397.45;1690248;84;25608;-67
2022/12/10 09:11:14;;;;;;;59.73;20.40;;;;;;;0.33;95.71;99396.38;1690831;84;25603;-67
2022/12/10 09:13:40;;;;;;;53.87;18.75;;;;;;;0.34;95.73;99396.66;1669018;84;25405;-65
2022/12/10 09:16:07;;;;;;;57.85;20.68;;;;;;;0.34;95.77;99389.19;1690824;84;27341;-67
2022/12/10 09:18:33;;;;;;;53.78;20.70;;;;;;;0.39;95.88;99404.37;1690760;84;25577;-67
2022/12/10 09:21:00;;;;;;;55.55;20.12;;;;;;;0.40;95.91;99405.98;1691443;84;25622;-68
2022/12/10 09:23:26;;;;;;;53.58;19.30;;;;;;;0.42;95.84;99411.29;1671711;84;25692;-68
2022/12/10 09:25:52;;;;;;;55.12;21.05;;;;;;;0.43;95.76;99408.12;1691642;84;25441;-65
2022/12/10 09:28:18;;;;;;;55.10;20.02;;;;;;;0.44;95.71;99409.16;1691598;84;27336;-67
2022/12/10 09:30:47;;;;;;;47.25;18.30;;;;;;;0.44;95.60;99405.70;1691505;84;25803;-67
2022/12/10 09:33:13;;;;;;;47.23;18.62;;;;;;;0.45;95.56;99409.98;1691165;84;25653;-67
2022/12/10 09:35:41;;;;;;;48.42;17.62;;;;;;;0.45;95.56;99415.30;1691628;84;25375;-64
2022/12/10 09:38:08;;;;;;;49.15;18.52;;;;;;;0.46;95.59;99414.22;1691639;84;25479;-66
2022/12/10 09:40:51;;;;;;;49.67;18.37;;;;;;;0.49;95.62;99413.16;1691602;84;25868;-65
2022/12/10 09:43:46;;;;;;;47.98;18.15;;;;;;;0.49;95.66;99409.70;1686309;84;27254;-65
2022/12/10 09:46:53;;;;;;;49.55;18.25;;;;;;;0.50;95.56;99406.78;1691624;84;25586;-67
2022/12/10 09:49:40;;;;;;;43.55;17.70;;;;;;;0.51;95.46;99401.74;1691583;83;25690;-66
2022/12/10 09:52:14;;;;;;;50.67;18.85;;;;;;;0.51;95.31;99395.60;1664384;84;25439;-66
2022/12/10 09:54:57;;;;;;;51.25;18.62;;;;;;;0.49;95.36;99398.52;1694153;84;27316;-68
2022/12/10 09:57:51;;;;;;;47.20;17.42;;;;;;;0.51;95.31;99399.59;1694056;84;25423;-67
2022/12/10 10:00:32;;;;;;;47.45;17.92;;;;;;;0.51;95.54;99396.42;1694121;84;25609;-66
2022/12/10 10:03:02;;;;;;;49.55;18.90;;;;;;;0.53;95.60;99406.27;1692089;84;25780;-67
2022/12/10 10:05:37;;;;;;;50.98;20.55;;;;;;;0.55;95.54;99412.66;1691755;84;25632;-66
2022/12/10 10:08:09;;;;;;;48.35;20.17;;;;;;;0.55;95.50;99421.97;1690783;84;27335;-67
2022/12/10 10:10:40;;;;;;;49.33;18.07;;;;;;;0.58;95.50;99425.95;1690068;84;25588;-65
2022/12/10 10:13:32;;;;;;;46.45;17.55;;;;;;;0.59;95.38;99427.56;1691579;84;25630;-67
2022/12/10 10:16:19;;;;;;;51.42;17.32;;;;;;;0.59;95.39;99427.02;1691566;84;25679;-65
2022/12/10 10:19:07;;;;;;;45.33;17.65;;;;;;;0.59;95.30;99431.02;1688647;84;25561;-65
2022/12/10 10:21:45;;;;;;;44.77;17.67;;;;;;;0.60;95.32;99430.50;1680942;83;27397;-65
2022/12/10 10:24:28;;;;;;;52.55;18.27;;;;;;;0.61;95.30;99434.75;1624498;88;26364;-65
2022/12/10 10:27:00;;;;;;;44.90;17.85;;;;;;;0.63;95.33;99436.61;1652157;86;25636;-68
2022/12/10 10:29:26;;;;;;;42.53;17.10;;;;;;;0.62;95.33;99431.03;1652144;86;25625;-66
2022/12/10 10:32:38;;;;;;;45.12;19.27;;;;;;;0.64;95.36;99435.02;1652042;86;25649;-67
2022/12/10 10:35:07;;;;;;;42.62;17.35;;;;;;;0.67;95.37;99429.71;1652120;86;27431;-66
2022/12/10 10:37:42;;;;;;;43.73;16.90;;;;;;;0.70;95.51;99426.53;1652019;86;25502;-66
2022/12/10 10:40:29;;;;;;;44.70;17.77;;;;;;;0.71;95.40;99427.56;1652167;86;25579;-66
2022/12/10 10:42:59;;;;;;;39.10;16.45;;;;;;;0.72;95.39;99421.73;1652175;86;25619;-65
2022/12/10 10:45:46;;;;;;;46.88;18.05;;;;;;;0.73;95.29;99425.97;1652177;86;25669;-67
2022/12/10 10:48:21;;;;;;;39.50;16.77;;;;;;;0.75;95.26;99427.86;1651225;86;27358;-67
2022/12/10 10:51:08;;;;;;;44.42;17.95;;;;;;;0.76;95.31;99414.02;1652075;86;25654;-65
2022/12/10 10:53:48;;;;;;;45.00;17.40;;;;;;;0.78;95.22;99414.00;1652115;86;25548;-67
2022/12/10 10:56:25;;;;;;;43.42;16.48;;;;;;;0.81;95.19;99416.67;1652145;86;25499;-66
2022/12/10 10:59:02;;;;;;;44.50;17.98;;;;;;;0.82;95.22;99408.42;1638291;86;25609;-65
2022/12/10 11:01:54;;;;;;;40.75;17.60;;;;;;;0.84;95.17;99403.62;1652742;86;27985;-64
2022/12/10 11:04:37;;;;;;;42.50;16.87;;;;;;;0.85;95.06;99393.26;1652121;86;25673;-70
2022/12/10 11:07:10;;;;;;;43.08;16.87;;;;;;;0.85;94.88;99390.59;1585595;89;25528;-66
2022/12/10 11:09:38;;;;;;;42.03;17.37;;;;;;;0.82;94.70;99379.14;1596915;89;26373;-69
2022/12/10 11:12:10;;;;;;;40.20;18.60;;;;;;;0.85;94.77;99384.45;1630235;88;25680;-66
2022/12/10 11:14:45;;;;;;;48.33;17.57;;;;;;;0.84;94.75;99383.66;1626329;88;27161;-66
2022/12/10 11:17:23;;;;;;;44.25;18.12;;;;;;;0.83;94.77;99375.94;1629650;88;25736;-66
2022/12/10 11:20:20;;;;;;;41.55;16.85;;;;;;;0.85;94.75;99371.14;1630548;88;25582;-65
2022/12/10 11:23:03;;;;;;;47.83;19.82;;;;;;;0.85;94.71;99368.48;1632817;86;25603;-66
2022/12/10 11:25:40;;;;;;;43.25;17.23;;;;;;;0.86;94.72;99370.08;1611282;87;25690;-66
2022/12/10 11:28:33;;;;;;;45.45;19.32;;;;;;;0.85;94.54;99369.80;1632573;87;27327;-66
2022/12/10 11:31:28;;;;;;;49.27;18.15;;;;;;;0.85;94.49;99376.46;1633036;87;25693;-66
2022/12/10 11:34:19;;;;;;;44.65;17.50;;;;;;;0.82;94.50;99364.50;1633455;87;25645;-64
2022/12/10 11:37:24;;;;;;;46.48;18.62;;;;;;;0.84;94.52;99365.02;1633557;87;26216;-65
2022/12/10 11:40:13;;;;;;;43.50;17.50;;;;;;;0.81;94.51;99348.25;1633372;87;25456;-65
2022/12/10 11:43:15;;;;;;;38.58;16.23;;;;;;;0.84;94.43;99349.59;1633548;87;28228;-65
2022/12/10 11:46:20;;;;;;;39.27;17.05;;;;;;;0.80;94.43;99355.98;1684058;85;25668;-65
2022/12/10 11:49:06;;;;;;;45.10;16.90;;;;;;;0.81;94.50;99352.23;1686961;85;25472;-65
2022/12/10 11:51:41;;;;;;;47.62;18.10;;;;;;;0.82;94.62;99357.02;1686569;84;25653;-66
2022/12/10 11:54:16;;;;;;;44.35;17.67;;;;;;;0.84;94.74;99358.37;1687004;85;25581;-65
2022/12/10 11:56:57;;;;;;;50.10;18.87;;;;;;;0.85;94.70;99364.48;1686813;83;27358;-65